Time;durP1;ratioP1;P1;durP2;ratioP2;P2;SDS_P1;SDS_P2;PMS_P1;PMS_P2;Temp;Humidity;BMP_temperature;BMP_pressure;BME280_temperature;BME280_humidity;BME280_pressure;Samples;Min_cycle;Max_cycle;Signal;HPM_P1;HPM_P2
2022/04/01 00:02:21;;;;;;;27.17;6.57;;;;;;;15.25;68.77;97788.00;5014144;28;20544;-87
2022/04/01 00:04:46;;;;;;;24.53;6.27;;;;;;;15.38;67.77;97867.03;5012679;28;20167;-87
2022/04/01 00:07:12;;;;;;;25.70;5.50;;;;;;;15.79;64.67;97868.75;5013373;28;20540;-86
2022/04/01 00:09:38;;;;;;;23.17;6.00;;;;;;;16.19;65.71;97887.38;5013511;28;20253;-87
2022/04/01 00:12:05;;;;;;;24.60;5.77;;;;;;;16.01;65.23;97882.34;5013207;28;20190;-87
2022/04/01 00:14:31;;;;;;;22.83;6.67;;;;;;;15.08;66.47;97692.91;5013186;28;20269;-86
2022/04/01 00:16:57;;;;;;;33.10;7.27;;;;;;;15.69;69.25;97836.44;5012518;28;20303;-86
2022/04/01 00:19:23;;;;;;;22.17;6.43;;;;;;;14.12;70.40;97626.66;5032340;28;20612;-87
2022/04/01 00:21:48;;;;;;;21.27;6.33;;;;;;;14.37;71.09;97626.69;5036401;28;20182;-86
2022/04/01 00:24:14;;;;;;;31.53;6.43;;;;;;;13.40;71.02;97512.97;5035404;28;20232;-88
2022/04/01 00:26:39;;;;;;;29.30;7.03;;;;;;;15.35;71.60;97833.06;5037638;28;20201;-88
2022/04/01 00:29:14;;;;;;;25.50;6.83;;;;;;;13.62;71.78;97538.41;5033263;28;20201;-87
2022/04/01 00:31:45;;;;;;;29.00;6.40;;;;;;;13.58;72.51;97542.63;5033289;28;20238;-86
2022/04/01 00:34:16;;;;;;;20.43;6.83;;;;;;;13.69;73.40;97524.84;5033031;28;20166;-87
2022/04/01 00:36:47;;;;;;;24.37;7.57;;;;;;;15.02;73.34;97775.28;5033550;28;20638;-86
2022/04/01 00:39:14;;;;;;;25.70;6.83;;;;;;;13.86;73.07;97510.47;5034179;28;20626;-86
2022/04/01 00:41:40;;;;;;;31.10;7.10;;;;;;;14.80;72.79;97757.44;5043011;28;20184;-86
2022/04/01 00:44:15;;;;;;;24.43;6.57;;;;;;;15.14;72.93;97749.78;5052053;28;20170;-86
2022/04/01 00:46:51;;;;;;;29.43;6.43;;;;;;;13.80;72.54;97617.25;5052158;28;20188;-86
2022/04/01 00:49:18;;;;;;;23.07;6.33;;;;;;;15.19;72.75;97803.34;5051955;28;20244;-86
2022/04/01 00:51:45;;;;;;;29.90;7.10;;;;;;;13.93;73.05;97611.34;5052178;28;20169;-87
2022/04/01 00:54:12;;;;;;;24.67;6.57;;;;;;;13.38;73.11;97513.78;5052930;28;20173;-86
2022/04/01 00:56:38;;;;;;;21.90;6.83;;;;;;;15.00;73.71;97825.38;5051504;28;20166;-85
2022/04/01 00:59:05;;;;;;;26.07;6.50;;;;;;;12.94;72.90;97407.78;5034158;28;20180;-86
2022/04/01 01:01:31;;;;;;;26.87;6.13;;;;;;;14.90;73.96;97692.91;5051804;28;20196;-87
2022/04/01 01:04:09;;;;;;;26.60;5.90;;;;;;;13.37;74.93;97492.63;5051552;28;20162;-87
2022/04/01 01:06:41;;;;;;;18.07;5.90;;;;;;;14.68;75.96;97712.44;5033186;28;20685;-86
2022/04/01 01:09:08;;;;;;;21.43;6.63;;;;;;;12.98;76.72;97383.25;5049881;28;20186;-86
2022/04/01 01:11:35;;;;;;;25.73;6.70;;;;;;;12.68;74.10;97385.72;5049653;28;20185;-86
2022/04/01 01:14:05;;;;;;;30.33;7.33;;;;;;;12.38;72.90;97333.19;5051206;28;20162;-86
2022/04/01 01:16:31;;;;;;;28.40;6.73;;;;;;;15.00;71.85;97694.56;5051203;28;20279;-86
2022/04/01 01:19:13;;;;;;;18.07;6.17;;;;;;;15.04;72.54;97726.88;5030915;28;20214;-86
2022/04/01 01:21:40;;;;;;;27.23;6.60;;;;;;;14.92;73.30;97744.69;5045550;28;20178;-87
2022/04/01 01:24:08;;;;;;;15.37;5.40;;;;;;;14.05;73.99;97677.53;5033634;28;20170;-86
2022/04/01 01:26:35;;;;;;;24.53;6.70;;;;;;;13.96;73.97;97697.84;5032682;28;20217;-85
2022/04/01 01:29:02;;;;;;;24.83;6.07;;;;;;;13.14;73.68;97504.41;5006608;28;20202;-90
2022/04/01 01:31:28;;;;;;;24.10;6.00;;;;;;;13.13;72.79;97477.28;5013242;28;20186;-85
2022/04/01 01:33:54;;;;;;;24.93;6.00;;;;;;;14.17;72.23;97668.22;5013270;28;20170;-86
2022/04/01 01:36:20;;;;;;;21.43;5.43;;;;;;;14.93;72.79;97797.38;5012876;28;20167;-85
2022/04/01 01:38:46;;;;;;;20.83;6.20;;;;;;;12.80;73.28;97411.16;5013146;28;20229;-86
2022/04/01 01:41:12;;;;;;;24.47;6.20;;;;;;;13.31;74.04;97535.81;5012961;28;20583;-86
2022/04/01 01:43:39;;;;;;;26.00;6.03;;;;;;;13.34;74.16;97543.44;5012825;28;20232;-86
2022/04/01 01:46:05;;;;;;;22.40;5.47;;;;;;;12.89;74.09;97445.03;5013329;28;20226;-86
2022/04/01 01:48:30;;;;;;;23.47;6.10;;;;;;;11.45;73.37;97224.59;5013139;28;20190;-86
2022/04/01 01:56:24;;;;;;;27.97;6.70;;;;;;;14.42;73.12;97679.31;5012830;28;20182;-86
2022/04/01 01:58:49;;;;;;;22.83;5.37;;;;;;;13.32;69.98;97442.63;5012589;28;20174;-86
2022/04/01 02:01:15;;;;;;;31.50;6.87;;;;;;;14.73;70.49;97729.41;5014069;28;20313;-86
2022/04/01 02:03:41;;;;;;;25.67;6.13;;;;;;;14.26;70.97;97661.44;5034259;28;20201;-86
2022/04/01 02:06:06;;;;;;;17.67;4.90;;;;;;;14.32;70.83;97601.25;5051244;28;20198;-86
2022/04/01 02:08:32;;;;;;;23.27;6.97;;;;;;;14.82;72.40;97722.63;5038936;28;20241;-86
2022/04/01 02:10:57;;;;;;;21.00;5.40;;;;;;;11.53;73.05;97213.66;5020465;28;20173;-86
2022/04/01 02:13:23;;;;;;;21.03;4.97;;;;;;;14.64;72.36;97685.28;5043069;28;20188;-86
2022/04/01 02:15:50;;;;;;;26.87;6.00;;;;;;;13.36;69.75;97473.13;5035987;28;20158;-86
2022/04/01 02:18:16;;;;;;;40.20;6.73;;;;;;;13.45;65.75;97454.50;5013634;28;20226;-87
2022/04/01 02:20:41;;;;;;;36.83;6.50;;;;;;;14.48;64.77;97580.03;5013185;28;20175;-87
2022/04/01 02:23:07;;;;;;;27.47;6.00;;;;;;;14.73;65.06;97568.94;5014441;28;20584;-86
2022/04/01 02:25:32;;;;;;;29.13;6.90;;;;;;;14.89;65.17;97640.25;5014054;28;20194;-86
2022/04/01 02:27:58;;;;;;;28.43;9.13;;;;;;;14.91;65.60;97677.63;5014371;28;20162;-87
2022/04/01 02:30:23;;;;;;;28.77;6.73;;;;;;;13.95;65.64;97469.78;5014055;28;20186;-85
2022/04/01 02:32:49;;;;;;;28.40;6.00;;;;;;;13.91;66.27;97432.47;5014202;28;20166;-86
2022/04/01 02:35:15;;;;;;;29.33;6.63;;;;;;;15.10;69.03;97725.16;5013122;28;20181;-85
2022/04/01 02:37:41;;;;;;;28.10;6.60;;;;;;;14.95;70.36;97737.91;5013950;28;20159;-86
2022/04/01 02:40:08;;;;;;;25.13;6.23;;;;;;;13.83;68.73;97567.25;5017048;28;20170;-87
2022/04/01 02:42:33;;;;;;;21.43;6.57;;;;;;;13.66;68.63;97487.56;5016379;28;20163;-85
2022/04/01 02:44:59;;;;;;;29.40;6.87;;;;;;;13.02;69.28;97416.28;5013367;28;20170;-86
2022/04/01 02:47:27;;;;;;;21.53;6.63;;;;;;;13.39;70.03;97470.59;5029540;28;20171;-85
2022/04/01 02:49:54;;;;;;;29.90;6.70;;;;;;;13.62;70.78;97539.28;5012822;28;20174;-86
2022/04/01 02:52:19;;;;;;;35.20;10.37;;;;;;;13.38;71.51;97514.63;5029158;28;20174;-87
2022/04/01 02:54:45;;;;;;;22.90;6.53;;;;;;;13.92;71.70;97652.91;5012759;28;20171;-86
2022/04/01 02:57:10;;;;;;;25.33;6.93;;;;;;;14.65;72.13;97799.03;5014106;28;20167;-85
2022/04/01 02:59:36;;;;;;;23.00;5.60;;;;;;;13.24;72.01;97551.84;5018578;28;20514;-85
2022/04/01 03:02:03;;;;;;;25.13;6.30;;;;;;;11.89;73.83;97354.97;5019203;28;20175;-85
2022/04/01 03:04:28;;;;;;;24.30;5.93;;;;;;;12.88;75.03;97572.00;5015245;28;20171;-86
2022/04/01 03:06:54;;;;;;;22.77;6.40;;;;;;;12.08;75.54;97437.91;5012785;28;20209;-86
2022/04/01 03:09:19;;;;;;;22.60;6.30;;;;;;;13.99;76.68;97789.44;5013931;28;20539;-87
2022/04/01 03:11:45;;;;;;;25.60;6.27;;;;;;;12.28;77.83;97534.38;5013572;28;20182;-87
2022/04/01 03:14:11;;;;;;;22.43;5.97;;;;;;;13.90;77.83;97808.06;5013979;28;20643;-87
2022/04/01 03:16:38;;;;;;;23.17;6.63;;;;;;;13.88;78.47;97816.53;5015089;28;20234;-86
2022/04/01 03:19:08;;;;;;;28.37;7.00;;;;;;;13.74;79.92;97806.28;5025764;28;20302;-86
2022/04/01 03:21:34;;;;;;;30.60;8.93;;;;;;;13.76;79.58;97798.69;5033279;28;20166;-86
2022/04/01 03:24:01;;;;;;;47.03;18.33;;;;;;;13.75;80.21;97814.78;5015154;28;20174;-86
2022/04/01 03:26:27;;;;;;;34.53;10.73;;;;;;;13.31;79.92;97733.16;5032870;28;20715;-85
2022/04/01 03:28:52;;;;;;;27.03;7.00;;;;;;;12.47;79.98;97576.00;5033115;28;20161;-87
2022/04/01 03:31:18;;;;;;;27.60;8.67;;;;;;;13.74;80.43;97803.75;5032610;28;20168;-86
2022/04/01 03:33:44;;;;;;;29.17;8.17;;;;;;;13.71;80.70;97787.59;5031503;28;20586;-86
2022/04/01 03:36:10;;;;;;;33.43;8.50;;;;;;;13.59;80.60;97770.63;5032750;28;20220;-86
2022/04/01 03:38:36;;;;;;;29.03;8.43;;;;;;;13.69;81.09;97779.13;5032749;28;20253;-86
2022/04/01 03:41:05;;;;;;;26.37;8.60;;;;;;;11.80;80.30;97471.50;5032695;28;20245;-86
2022/04/01 03:43:34;;;;;;;27.53;8.57;;;;;;;12.09;80.50;97517.34;5032604;28;20161;-86
2022/04/01 03:46:06;;;;;;;31.20;9.03;;;;;;;13.79;80.11;97786.81;5035386;28;20277;-85
2022/04/01 03:48:39;;;;;;;32.70;8.53;;;;;;;12.17;79.73;97514.03;5041710;28;20236;-86
2022/04/01 03:51:05;;;;;;;29.23;8.53;;;;;;;12.25;79.40;97530.16;5038237;28;20189;-87
2022/04/01 03:53:32;;;;;;;27.63;8.47;;;;;;;13.38;80.16;97730.66;5036177;28;20174;-86
2022/04/01 03:55:59;;;;;;;36.30;9.60;;;;;;;10.76;79.43;97270.53;5035200;28;20158;-86
2022/04/01 03:58:34;;;;;;;29.90;9.60;;;;;;;11.83;78.93;97461.38;5032587;28;20220;-87
2022/04/01 04:01:02;;;;;;;35.73;10.27;;;;;;;13.31;78.70;97683.19;5014360;28;20169;-86
2022/04/01 04:03:29;;;;;;;38.33;9.97;;;;;;;13.69;78.80;97743.53;5032337;28;20548;-86
2022/04/01 04:05:56;;;;;;;31.70;9.50;;;;;;;13.18;78.50;97657.72;5032877;28;20209;-86
2022/04/01 04:08:22;;;;;;;36.10;10.13;;;;;;;11.25;78.01;97368.84;5040782;28;20536;-86
2022/04/01 04:10:51;;;;;;;32.97;9.03;;;;;;;13.65;77.80;97749.47;5034132;28;20633;-86
2022/04/01 04:13:17;;;;;;;30.53;8.17;;;;;;;11.93;77.37;97453.00;5055009;28;20168;-86
2022/04/01 04:16:13;;;;;;;41.70;9.33;;;;;;;13.34;77.05;97675.59;5047854;28;20630;-86
2022/04/01 04:18:47;;;;;;;34.40;9.33;;;;;;;13.38;76.48;97689.13;5012048;28;20261;-86
2022/04/01 04:21:27;;;;;;;28.57;9.07;;;;;;;13.00;74.92;97592.38;5031966;28;20168;-86
2022/04/01 04:23:58;;;;;;;45.80;10.43;;;;;;;14.00;75.25;97755.53;5031976;28;20591;-87
2022/04/01 04:26:26;;;;;;;44.83;10.17;;;;;;;13.81;75.19;97710.53;5013955;28;20266;-86
2022/04/01 04:29:00;;;;;;;39.30;10.00;;;;;;;14.06;74.46;97758.94;5023936;28;20290;-86
2022/04/01 04:31:30;;;;;;;36.67;10.30;;;;;;;13.45;73.94;97658.69;5052632;28;20172;-86
2022/04/01 04:33:57;;;;;;;38.60;9.30;;;;;;;12.98;74.35;97544.13;5044382;28;20177;-86
2022/04/01 04:36:33;;;;;;;44.43;9.27;;;;;;;14.03;74.66;97765.72;5084863;28;20228;-86
2022/04/01 04:39:03;;;;;;;42.63;10.17;;;;;;;13.44;73.29;97646.81;5055001;28;20178;-86
2022/04/01 04:41:29;;;;;;;52.00;9.50;;;;;;;12.25;73.47;97432.94;5064812;28;20184;-88
2022/04/01 04:43:55;;;;;;;44.60;10.47;;;;;;;12.67;73.25;97528.72;5055889;28;20178;-86
2022/04/01 04:46:22;;;;;;;45.97;10.37;;;;;;;14.19;73.12;97752.22;5041351;28;20184;-86
2022/04/01 04:48:48;;;;;;;49.43;10.10;;;;;;;11.74;72.34;97365.00;5055285;28;20160;-87
2022/04/01 04:51:16;;;;;;;43.20;10.20;;;;;;;12.81;71.87;97501.72;5055005;28;20173;-86
2022/04/01 04:53:44;;;;;;;48.67;10.40;;;;;;;13.99;71.71;97687.69;5052188;28;20226;-86
2022/04/01 04:56:10;;;;;;;39.77;10.50;;;;;;;13.84;71.44;97657.13;5035215;28;20162;-87
2022/04/01 04:58:39;;;;;;;43.87;9.73;;;;;;;14.62;70.38;97761.66;5051672;28;20174;-86
2022/04/01 05:01:24;;;;;;;52.97;10.80;;;;;;;14.52;70.16;97736.19;5050975;28;20176;-86
2022/04/01 05:04:09;;;;;;;39.37;10.40;;;;;;;14.47;71.11;97743.84;5054225;28;20211;-87
2022/04/01 05:06:42;;;;;;;43.10;10.80;;;;;;;14.63;70.13;97737.06;5055364;28;20239;-86
2022/04/01 05:09:07;;;;;;;50.30;10.40;;;;;;;14.61;70.00;97726.84;5035624;28;20169;-87
2022/04/01 05:12:14;;;;;;;44.70;11.33;;;;;;;14.11;69.10;97626.66;5053869;28;20169;-87
2022/04/01 05:14:57;;;;;;;40.87;9.77;;;;;;;14.86;67.99;97765.91;5037410;28;20176;-86
2022/04/01 05:17:33;;;;;;;42.80;9.43;;;;;;;15.01;66.81;97760.00;5027740;28;20718;-85
2022/04/01 05:20:01;;;;;;;56.23;10.50;;;;;;;14.36;66.17;97609.75;5021346;28;20176;-85
2022/04/01 05:22:36;;;;;;;46.40;9.97;;;;;;;15.28;65.99;97737.03;5045010;28;20183;-86
2022/04/01 05:25:04;;;;;;;42.07;10.63;;;;;;;15.04;66.93;97711.56;5037714;28;20162;-86
2022/04/01 05:27:32;;;;;;;48.47;9.93;;;;;;;12.08;67.00;97237.56;5016188;28;20206;-86
2022/04/01 05:30:18;;;;;;;39.07;9.57;;;;;;;13.43;66.77;97484.97;5010620;28;20229;-86
2022/04/01 05:32:58;;;;;;;40.03;9.97;;;;;;;15.24;66.57;97758.28;5040337;28;20166;-86
2022/04/01 05:35:33;;;;;;;51.57;11.07;;;;;;;14.30;66.45;97592.75;5035404;28;20165;-86
2022/04/01 05:37:59;;;;;;;48.10;10.53;;;;;;;14.42;66.94;97592.75;5035765;28;20186;-86
2022/04/01 05:40:28;;;;;;;44.07;9.57;;;;;;;15.11;67.53;97728.53;5035129;28;20166;-87
2022/04/01 05:42:55;;;;;;;43.57;10.00;;;;;;;15.05;68.60;97710.72;5045020;28;20565;-88
2022/04/01 05:45:21;;;;;;;42.53;9.80;;;;;;;14.24;68.78;97602.91;5026137;28;21071;-86
2022/04/01 05:47:47;;;;;;;37.17;7.50;;;;;;;14.11;67.95;97591.03;5048098;28;20265;-86
2022/04/01 05:50:18;;;;;;;44.17;10.17;;;;;;;13.84;67.19;97505.38;5023871;28;20662;-86
2022/04/01 05:52:46;;;;;;;38.40;9.87;;;;;;;14.53;66.29;97601.22;5030905;28;20169;-88
2022/04/01 05:55:14;;;;;;;49.80;11.00;;;;;;;14.26;66.46;97490.91;5021005;28;20174;-88
2022/04/01 05:57:39;;;;;;;48.60;10.43;;;;;;;14.17;66.21;97461.28;5016328;28;20177;-86
2022/04/01 06:00:05;;;;;;;39.87;10.27;;;;;;;15.40;65.65;97665.63;5024627;28;20178;-86
2022/04/01 06:02:50;;;;;;;47.77;10.33;;;;;;;15.19;64.49;97573.94;5029710;28;20186;-86
2022/04/01 06:05:43;;;;;;;41.97;11.43;;;;;;;16.34;63.29;97718.78;5038929;28;20272;-87
2022/04/01 06:08:30;;;;;;;43.93;11.30;;;;;;;16.50;62.83;97733.16;5022457;28;20170;-86
2022/04/01 06:11:04;;;;;;;46.03;11.30;;;;;;;15.52;63.82;97578.88;5033240;28;20193;-87
2022/04/01 06:13:45;;;;;;;52.70;12.63;;;;;;;16.61;62.56;97716.09;5022816;28;20274;-88
2022/04/01 06:16:27;;;;;;;43.57;10.47;;;;;;;16.90;60.79;97724.38;5027523;28;20759;-89
2022/04/01 06:19:06;;;;;;;47.53;10.80;;;;;;;16.97;60.73;97726.03;5037112;28;20228;-86
2022/04/01 06:21:37;;;;;;;42.17;11.27;;;;;;;17.24;60.11;97730.03;5029904;28;20574;-86
2022/04/01 06:24:11;;;;;;;51.33;11.80;;;;;;;17.36;59.12;97717.09;5050754;28;20185;-89
2022/04/01 06:27:03;;;;;;;49.10;11.00;;;;;;;17.58;58.48;97710.94;5043332;28;20683;-87
2022/04/01 06:29:36;;;;;;;50.23;10.10;;;;;;;17.75;57.67;97697.94;4954139;29;20255;-87
2022/04/01 06:32:05;;;;;;;37.90;10.20;;;;;;;17.60;57.53;97652.09;4957972;29;20227;-86
2022/04/01 06:34:57;;;;;;;46.23;9.40;;;;;;;17.01;56.17;97525.72;4957721;28;20216;-87
2022/04/01 06:37:28;;;;;;;44.33;10.83;;;;;;;17.85;56.06;97642.38;4897489;29;20197;-87
2022/04/01 06:40:14;;;;;;;45.50;10.57;;;;;;;18.14;55.53;97640.25;4881593;29;20233;-87
2022/04/01 06:42:43;;;;;;;39.20;10.03;;;;;;;18.51;55.17;97699.53;4897111;29;20201;-87
2022/04/01 06:45:10;;;;;;;48.83;10.77;;;;;;;18.55;55.54;97699.44;4897714;29;20305;-87
2022/04/01 06:47:36;;;;;;;40.97;10.10;;;;;;;18.37;55.65;97693.72;4896261;29;20672;-87
2022/04/01 06:50:03;;;;;;;45.60;10.80;;;;;;;17.24;56.46;97493.91;4895309;29;20201;-89
2022/04/01 06:52:29;;;;;;;53.60;11.80;;;;;;;18.27;55.65;97659.69;4890144;29;20198;-87
2022/04/01 06:54:55;;;;;;;45.53;10.13;;;;;;;17.93;55.51;97614.97;4888397;28;20259;-86
2022/04/01 06:57:21;;;;;;;39.30;10.10;;;;;;;17.91;55.07;97565.50;4902155;29;20290;-86
2022/04/01 06:59:46;;;;;;;46.13;9.80;;;;;;;18.73;53.59;97667.56;4899291;29;20183;-86
2022/04/01 07:02:12;;;;;;;34.57;9.27;;;;;;;17.76;52.93;97479.53;4919631;29;20210;-87
2022/04/01 07:04:37;;;;;;;39.77;10.27;;;;;;;18.54;52.70;97579.84;4911039;29;20621;-87
2022/04/01 07:07:03;;;;;;;32.20;9.53;;;;;;;19.11;52.10;97695.97;4974220;28;20770;-87
2022/04/01 07:09:29;;;;;;;40.40;9.50;;;;;;;18.69;52.42;97643.69;4983808;28;20167;-86
2022/04/01 07:11:56;;;;;;;37.87;10.47;;;;;;;18.49;52.11;97552.59;4994812;28;20666;-87
2022/04/01 07:14:22;;;;;;;42.37;10.17;;;;;;;18.61;51.47;97539.59;5012154;28;20193;-86
2022/04/01 07:16:47;;;;;;;39.13;9.03;;;;;;;17.48;50.68;97345.19;5033745;28;20244;-87
2022/04/01 07:19:12;;;;;;;33.77;9.13;;;;;;;18.74;51.38;97541.06;5034076;28;20163;-86
2022/04/01 07:21:38;;;;;;;34.47;9.63;;;;;;;17.97;50.32;97401.53;5034948;28;20571;-87
2022/04/01 07:24:04;;;;;;;42.37;9.10;;;;;;;18.42;49.10;97417.78;5034217;28;20174;-89
2022/04/01 07:26:29;;;;;;;39.97;8.90;;;;;;;19.82;47.08;97603.91;5033755;28;20694;-87
2022/04/01 07:28:55;;;;;;;53.80;10.57;;;;;;;18.58;47.37;97367.94;5033273;28;20185;-87
2022/04/01 07:34:06;;;;;;;38.03;10.30;;;;;;;19.60;46.07;97525.66;5034458;28;20255;-86
2022/04/01 07:36:33;;;;;;;41.37;9.87;;;;;;;19.98;46.09;97552.16;5032418;28;20653;-86
2022/04/01 07:38:58;;;;;;;49.73;11.20;;;;;;;19.84;46.07;97504.53;5034338;28;20170;-86
2022/04/01 07:41:24;;;;;;;38.80;9.33;;;;;;;20.14;44.77;97501.25;5034586;28;20564;-87
2022/04/01 07:43:50;;;;;;;44.03;9.30;;;;;;;20.98;44.65;97619.09;5043999;28;20174;-85
2022/04/01 07:46:16;;;;;;;42.80;9.37;;;;;;;21.46;43.93;97667.59;5029982;28;20656;-86
2022/04/01 07:48:41;;;;;;;38.97;9.43;;;;;;;20.08;43.55;97442.28;5040888;28;20182;-87
2022/04/01 07:51:07;;;;;;;46.57;10.93;;;;;;;20.52;43.96;97480.56;5033386;28;20170;-87
2022/04/01 07:53:32;;;;;;;42.07;9.53;;;;;;;21.60;43.51;97674.06;5015728;28;20209;-87
2022/04/01 07:55:58;;;;;;;49.10;8.97;;;;;;;21.17;43.97;97596.31;5003866;28;20280;-87
2022/04/01 07:58:23;;;;;;;56.23;9.90;;;;;;;19.55;44.09;97296.47;5032790;28;20178;-86
2022/04/01 08:00:49;;;;;;;47.03;10.60;;;;;;;22.00;43.41;97618.84;5033224;28;20205;-87
2022/04/01 08:03:14;;;;;;;39.60;9.70;;;;;;;20.34;42.79;97362.84;5032917;28;20240;-87
2022/04/01 08:05:40;;;;;;;39.83;9.73;;;;;;;21.84;42.33;97581.53;5032928;28;20193;-86
2022/04/01 08:08:05;;;;;;;49.40;9.33;;;;;;;21.39;41.04;97496.16;5044445;28;20181;-87
2022/04/01 08:10:31;;;;;;;46.80;9.77;;;;;;;21.42;40.62;97472.91;5035625;28;20173;-86
2022/04/01 08:12:56;;;;;;;39.67;9.43;;;;;;;21.70;41.07;97564.72;5056335;28;20170;-87
2022/04/01 08:15:23;;;;;;;48.57;10.10;;;;;;;22.46;39.90;97644.88;5056805;28;20165;-87
2022/04/01 08:17:48;;;;;;;57.53;10.53;;;;;;;21.58;39.79;97431.19;5052524;28;20221;-87
2022/04/01 08:20:14;;;;;;;45.90;10.17;;;;;;;22.69;39.44;97588.25;5045429;28;20188;-87
2022/04/01 08:22:40;;;;;;;47.77;9.67;;;;;;;22.60;38.03;97618.66;5052450;28;20211;-87
2022/04/01 08:25:06;;;;;;;56.73;9.67;;;;;;;22.49;37.57;97575.16;5030924;28;20178;-87
2022/04/01 08:27:32;;;;;;;46.67;9.90;;;;;;;23.41;38.89;97664.09;5034156;28;20170;-87
2022/04/01 08:29:59;;;;;;;46.07;8.90;;;;;;;23.12;38.01;97608.28;5046299;28;20177;-87
2022/04/01 08:32:29;;;;;;;51.10;9.87;;;;;;;23.40;37.77;97652.09;5075411;28;20158;-87
2022/04/01 08:34:55;;;;;;;50.30;10.27;;;;;;;23.67;37.57;97664.00;5060708;28;20238;-87
2022/04/01 08:37:21;;;;;;;51.00;10.00;;;;;;;23.79;37.42;97654.94;5032471;28;20615;-87
2022/04/01 08:39:47;;;;;;;47.37;10.27;;;;;;;23.44;36.83;97555.50;5021785;28;20177;-87
2022/04/01 08:42:13;;;;;;;48.90;10.03;;;;;;;24.36;37.32;97651.94;5033744;28;20641;-87
2022/04/01 08:44:42;;;;;;;58.03;10.63;;;;;;;24.26;36.94;97640.25;5033077;28;20178;-87
2022/04/01 08:47:11;;;;;;;51.37;10.10;;;;;;;23.35;36.32;97481.75;5035721;28;20220;-86
2022/04/01 08:49:37;;;;;;;60.87;10.60;;;;;;;24.22;35.75;97634.38;5033033;28;20189;-86
2022/04/01 08:52:03;;;;;;;47.03;9.77;;;;;;;24.16;34.92;97592.38;5032249;28;20652;-87
2022/04/01 08:54:35;;;;;;;67.03;10.33;;;;;;;22.43;35.56;97307.16;5014336;28;20212;-87
2022/04/01 08:57:01;;;;;;;60.60;10.63;;;;;;;24.24;35.44;97543.78;5019089;28;20622;-86
2022/04/01 08:59:27;;;;;;;59.97;10.57;;;;;;;23.17;34.45;97327.56;5031266;28;20189;-79
2022/04/01 09:02:10;;;;;;;55.50;10.20;;;;;;;24.86;34.17;97541.22;5031639;28;20164;-79
2022/04/01 09:04:36;;;;;;;55.03;10.73;;;;;;;25.51;34.08;97619.50;5031715;28;20161;-79
2022/04/01 09:07:15;;;;;;;55.97;11.87;;;;;;;24.86;34.03;97513.56;5031337;28;20193;-79
2022/04/01 09:09:42;;;;;;;69.87;11.17;;;;;;;25.60;33.92;97610.47;5031163;28;20377;-78
2022/04/01 09:12:15;;;;;;;56.03;11.23;;;;;;;25.11;33.01;97510.72;5037356;28;20248;-79
2022/04/01 09:14:51;;;;;;;62.43;11.20;;;;;;;25.57;33.25;97522.47;5051765;28;20167;-78
2022/04/01 09:17:16;;;;;;;63.10;10.97;;;;;;;24.82;32.93;97438.69;5051791;28;20223;-79
2022/04/01 09:19:42;;;;;;;58.77;11.57;;;;;;;25.31;33.34;97535.75;5051613;28;20173;-79
2022/04/01 09:22:18;;;;;;;72.67;11.73;;;;;;;24.97;33.39;97441.44;5051597;28;20271;-79
2022/04/01 09:25:10;;;;;;;58.23;11.60;;;;;;;26.05;32.01;97574.63;5051594;28;20272;-79
2022/04/01 09:27:40;;;;;;;54.57;10.50;;;;;;;26.01;32.82;97567.06;5047489;28;20185;-79
2022/04/01 09:30:07;;;;;;;54.17;11.27;;;;;;;24.88;33.73;97428.91;5062925;28;20181;-80
2022/04/01 09:32:39;;;;;;;57.20;11.20;;;;;;;24.57;34.00;97381.97;5056479;28;20653;-80
2022/04/01 09:35:07;;;;;;;59.60;11.27;;;;;;;25.86;33.07;97515.91;5054126;28;20245;-78
2022/04/01 09:37:55;;;;;;;60.53;11.35;;;;;;;25.60;33.03;97470.50;5051499;28;20159;-80
2022/04/01 09:40:22;;;;;;;55.85;10.63;;;;;;;24.78;32.76;97375.81;5051081;28;20173;-79
2022/04/01 09:42:56;;;;;;;61.65;11.57;;;;;;;26.29;32.31;97583.84;5034210;28;20208;-80
2022/04/01 09:45:27;;;;;;;63.92;11.27;;;;;;;25.40;32.92;97497.31;5051587;28;20249;-79
2022/04/01 09:48:10;;;;;;;59.92;11.40;;;;;;;25.74;32.58;97528.53;5051049;28;20170;-78
2022/04/01 09:50:38;;;;;;;55.70;10.87;;;;;;;26.25;32.46;97568.50;5054028;28;20181;-79
2022/04/01 09:53:15;;;;;;;53.28;10.55;;;;;;;26.57;31.75;97561.72;5055043;28;20229;-78
2022/04/01 09:55:43;;;;;;;69.60;11.82;;;;;;;25.77;32.25;97514.59;5054751;28;20181;-79
2022/04/01 09:58:09;;;;;;;57.00;11.30;;;;;;;25.23;31.94;97363.38;5054491;28;20249;-78
2022/04/01 10:00:37;;;;;;;57.22;11.38;;;;;;;25.29;32.23;97439.97;5042365;28;20225;-78
2022/04/01 10:03:03;;;;;;;58.55;11.05;;;;;;;25.74;31.56;97492.25;5054418;28;20678;-78
2022/04/01 10:05:29;;;;;;;75.75;11.98;;;;;;;24.89;32.02;97339.97;5055364;28;20542;-80
2022/04/01 10:07:57;;;;;;;56.70;10.23;;;;;;;26.47;31.10;97550.13;5054738;28;20174;-80
2022/04/01 10:10:24;;;;;;;63.55;12.23;;;;;;;25.32;31.20;97304.28;5054017;28;20179;-79
2022/04/01 10:12:53;;;;;;;60.50;11.82;;;;;;;24.87;30.68;97208.94;5066172;28;20167;-80
2022/04/01 10:15:19;;;;;;;63.88;10.48;;;;;;;27.10;30.50;97533.06;5074363;28;20176;-79
2022/04/01 10:17:46;;;;;;;66.75;12.00;;;;;;;26.49;30.46;97452.28;5073706;28;20606;-79
2022/04/01 10:20:15;;;;;;;58.17;11.93;;;;;;;27.08;30.33;97545.31;5060265;28;20176;-81
2022/04/01 10:22:42;;;;;;;61.65;11.40;;;;;;;25.02;30.95;97260.00;5054209;28;20179;-80
2022/04/01 10:25:15;;;;;;;64.93;11.38;;;;;;;26.05;30.90;97426.78;5053990;28;20257;-79
2022/04/01 10:27:47;;;;;;;63.65;11.63;;;;;;;25.34;30.96;97315.41;5054009;28;20251;-80
2022/04/01 10:30:16;;;;;;;62.63;12.20;;;;;;;26.90;30.63;97521.97;5035615;28;20176;-79
2022/04/01 10:32:43;;;;;;;84.65;13.45;;;;;;;26.66;29.96;97439.28;5053641;28;20170;-81
2022/04/01 10:35:22;;;;;;;59.92;11.52;;;;;;;27.12;29.65;97481.88;5035087;28;20184;-81
2022/04/01 10:37:52;;;;;;;60.92;11.18;;;;;;;24.58;30.34;97135.28;5034141;28;20156;-79
2022/04/01 10:40:18;;;;;;;49.72;10.50;;;;;;;26.69;29.68;97423.53;5047744;28;20595;-79
2022/04/01 10:42:46;;;;;;;55.08;11.45;;;;;;;27.36;29.25;97509.16;5053619;28;20248;-80
2022/04/01 10:45:24;;;;;;;51.15;10.27;;;;;;;26.23;29.77;97425.06;5053545;28;20176;-79
2022/04/01 10:53:33;;;;;;;57.88;10.50;;;;;;;26.73;29.96;97510.72;5053478;28;20167;-80
2022/04/01 10:56:37;;;;;;;49.35;9.88;;;;;;;26.02;31.70;97512.53;5053306;28;20245;-81
2022/04/01 10:59:16;;;;;;;47.83;9.57;;;;;;;25.66;32.45;97509.06;5052447;28;20202;-80
2022/04/01 11:01:53;;;;;;;46.67;8.60;;;;;;;25.22;32.73;97503.31;5052975;28;20165;-79
2022/04/01 11:04:19;;;;;;;55.90;9.90;;;;;;;24.73;33.28;97507.19;5053405;28;20165;-80
2022/04/01 11:06:56;;;;;;;65.47;10.33;;;;;;;24.96;33.52;97507.09;5052879;28;20192;-80
2022/04/01 11:09:39;;;;;;;51.33;9.00;;;;;;;25.32;32.17;97490.78;5053297;28;20177;-81
2022/04/01 11:12:18;;;;;;;40.27;8.97;;;;;;;24.86;32.53;97492.84;5058621;28;20226;-79
2022/04/01 11:18:09;;;;;;;42.07;8.30;;;;;;;23.49;32.84;97259.13;4979770;28;20723;-82
2022/04/01 11:20:39;;;;;;;46.27;8.03;;;;;;;24.75;33.13;97484.66;4976864;28;20202;-79
2022/04/01 11:23:07;;;;;;;35.40;7.30;;;;;;;24.71;33.05;97431.38;4972212;28;20180;-80
2022/04/01 11:25:32;;;;;;;46.33;8.70;;;;;;;24.93;33.02;97470.13;4972029;28;20203;-79
2022/04/01 11:28:05;;;;;;;51.63;8.70;;;;;;;22.30;33.08;97022.38;4972221;28;20184;-79
2022/04/01 11:30:40;;;;;;;51.50;8.70;;;;;;;24.20;32.62;97296.59;4971730;28;20176;-80
2022/04/01 11:33:12;;;;;;;40.63;8.30;;;;;;;25.00;32.87;97461.16;4971049;28;20426;-81
2022/04/01 11:35:41;;;;;;;46.97;8.77;;;;;;;23.49;33.35;97248.78;4971797;28;20419;-80
2022/04/01 11:38:16;;;;;;;45.80;8.87;;;;;;;23.73;33.58;97335.63;4971655;28;20172;-82
2022/04/01 11:40:43;;;;;;;49.63;7.93;;;;;;;23.91;33.46;97367.59;4972060;28;20676;-80
2022/04/01 11:43:11;;;;;;;33.27;7.33;;;;;;;24.07;32.71;97314.31;4972252;28;20664;-80
2022/04/01 11:45:43;;;;;;;35.47;7.47;;;;;;;23.75;32.64;97323.47;4972154;28;20282;-81
2022/04/01 11:48:26;;;;;;;30.60;7.23;;;;;;;24.92;32.22;97440.78;4971767;28;20184;-80
2022/04/01 11:51:01;;;;;;;54.37;9.10;;;;;;;24.69;31.78;97323.66;4987319;28;20176;-79